sensor_id;sensor_type;location;lat;lon;timestamp;temperature;humidity
31695;DHT22;18289;51.330;4.946;2023-02-28T00:01:19;0.90;99.90
31695;DHT22;18289;51.330;4.946;2023-02-28T00:03:45;0.70;99.90
31695;DHT22;18289;51.330;4.946;2023-02-28T00:06:11;0.70;99.90
31695;DHT22;18289;51.330;4.946;2023-02-28T00:08:37;0.80;99.90
31695;DHT22;18289;51.330;4.946;2023-02-28T00:11:06;0.70;99.90
31695;DHT22;18289;51.330;4.946;2023-02-28T00:13:35;0.80;99.90
31695;DHT22;18289;51.330;4.946;2023-02-28T00:16:06;0.70;99.90
31695;DHT22;18289;51.330;4.946;2023-02-28T00:18:32;0.60;99.90
31695;DHT22;18289;51.330;4.946;2023-02-28T00:20:59;0.70;99.90
31695;DHT22;18289;51.330;4.946;2023-02-28T00:23:25;0.60;99.90
31695;DHT22;18289;51.330;4.946;2023-02-28T00:25:52;0.80;99.90
31695;DHT22;18289;51.330;4.946;2023-02-28T00:28:20;0.60;99.90
31695;DHT22;18289;51.330;4.946;2023-02-28T00:30:46;0.60;99.90
31695;DHT22;18289;51.330;4.946;2023-02-28T00:33:12;0.70;99.90
31695;DHT22;18289;51.330;4.946;2023-02-28T00:35:38;0.70;99.90
31695;DHT22;18289;51.330;4.946;2023-02-28T00:38:04;0.50;99.90
31695;DHT22;18289;51.330;4.946;2023-02-28T00:40:29;0.70;99.90
31695;DHT22;18289;51.330;4.946;2023-02-28T00:42:55;0.60;99.90
31695;DHT22;18289;51.330;4.946;2023-02-28T00:45:21;0.70;99.90
31695;DHT22;18289;51.330;4.946;2023-02-28T00:47:47;0.60;99.90
31695;DHT22;18289;51.330;4.946;2023-02-28T00:50:24;0.60;99.90
31695;DHT22;18289;51.330;4.946;2023-02-28T00:52:50;0.50;99.90
31695;DHT22;18289;51.330;4.946;2023-02-28T00:55:15;0.60;99.90
31695;DHT22;18289;51.330;4.946;2023-02-28T00:57:41;0.50;99.90
31695;DHT22;18289;51.330;4.946;2023-02-28T01:00:08;0.70;99.90
31695;DHT22;18289;51.330;4.946;2023-02-28T01:02:34;0.60;99.90
31695;DHT22;18289;51.330;4.946;2023-02-28T01:04:59;0.60;99.90
31695;DHT22;18289;51.330;4.946;2023-02-28T01:07:25;0.70;99.90
31695;DHT22;18289;51.330;4.946;2023-02-28T01:09:51;0.60;99.90
31695;DHT22;18289;51.330;4.946;2023-02-28T01:12:16;0.60;99.90
31695;DHT22;18289;51.330;4.946;2023-02-28T01:14:42;0.50;99.90
31695;DHT22;18289;51.330;4.946;2023-02-28T01:17:08;0.50;99.90
31695;DHT22;18289;51.330;4.946;2023-02-28T01:19:34;0.40;99.90
31695;DHT22;18289;51.330;4.946;2023-02-28T01:22:04;0.40;99.90
31695;DHT22;18289;51.330;4.946;2023-02-28T01:24:30;0.50;99.90
31695;DHT22;18289;51.330;4.946;2023-02-28T01:26:56;0.30;99.90
31695;DHT22;18289;51.330;4.946;2023-02-28T01:29:21;0.30;99.90
31695;DHT22;18289;51.330;4.946;2023-02-28T01:31:47;0.30;99.90
31695;DHT22;18289;51.330;4.946;2023-02-28T01:34:13;0.40;99.90
31695;DHT22;18289;51.330;4.946;2023-02-28T01:36:38;0.40;99.90
31695;DHT22;18289;51.330;4.946;2023-02-28T01:39:04;0.20;99.90
31695;DHT22;18289;51.330;4.946;2023-02-28T01:41:32;0.20;99.90
31695;DHT22;18289;51.330;4.946;2023-02-28T01:44:00;0.30;99.90
31695;DHT22;18289;51.330;4.946;2023-02-28T01:46:31;0.20;99.90
31695;DHT22;18289;51.330;4.946;2023-02-28T01:49:02;0.40;99.90
31695;DHT22;18289;51.330;4.946;2023-02-28T01:51:37;0.30;99.90
31695;DHT22;18289;51.330;4.946;2023-02-28T01:54:09;0.20;99.90
31695;DHT22;18289;51.330;4.946;2023-02-28T01:56:44;0.40;99.90
31695;DHT22;18289;51.330;4.946;2023-02-28T01:59:14;0.20;99.90
31695;DHT22;18289;51.330;4.946;2023-02-28T02:01:42;0.10;99.90
31695;DHT22;18289;51.330;4.946;2023-02-28T02:04:08;0.10;99.90
31695;DHT22;18289;51.330;4.946;2023-02-28T02:06:45;0.10;99.90
31695;DHT22;18289;51.330;4.946;2023-02-28T02:09:13;0.10;99.90
31695;DHT22;18289;51.330;4.946;2023-02-28T02:11:41;0.10;99.90
31695;DHT22;18289;51.330;4.946;2023-02-28T02:17:11;0.20;99.90
31695;DHT22;18289;51.330;4.946;2023-02-28T02:36:51;0.00;99.90
31695;DHT22;18289;51.330;4.946;2023-02-28T02:39:42;0.10;99.90
31695;DHT22;18289;51.330;4.946;2023-02-28T02:42:47;0.10;99.90
31695;DHT22;18289;51.330;4.946;2023-02-28T02:45:28;0.10;99.90
31695;DHT22;18289;51.330;4.946;2023-02-28T02:48:01;0.10;99.90
31695;DHT22;18289;51.330;4.946;2023-02-28T02:50:33;0.30;99.90
31695;DHT22;18289;51.330;4.946;2023-02-28T02:53:03;0.20;99.90
31695;DHT22;18289;51.330;4.946;2023-02-28T02:55:32;0.20;99.90
31695;DHT22;18289;51.330;4.946;2023-02-28T02:58:01;0.20;99.90
31695;DHT22;18289;51.330;4.946;2023-02-28T03:00:50;0.10;99.90
31695;DHT22;18289;51.330;4.946;2023-02-28T03:03:19;0.00;99.90
31695;DHT22;18289;51.330;4.946;2023-02-28T03:05:58;0.10;99.90
31695;DHT22;18289;51.330;4.946;2023-02-28T03:08:24;0.00;99.90
31695;DHT22;18289;51.330;4.946;2023-02-28T03:10:52;0.10;99.90
31695;DHT22;18289;51.330;4.946;2023-02-28T03:13:46;0.10;99.90
31695;DHT22;18289;51.330;4.946;2023-02-28T03:24:45;0.00;99.90
31695;DHT22;18289;51.330;4.946;2023-02-28T03:30:03;0.00;99.90
31695;DHT22;18289;51.330;4.946;2023-02-28T03:32:36;0.00;99.90
31695;DHT22;18289;51.330;4.946;2023-02-28T03:35:19;-0.10;99.90
31695;DHT22;18289;51.330;4.946;2023-02-28T03:37:54;-0.10;99.90
31695;DHT22;18289;51.330;4.946;2023-02-28T03:40:25;0.20;99.90
31695;DHT22;18289;51.330;4.946;2023-02-28T03:42:58;0.20;99.90
31695;DHT22;18289;51.330;4.946;2023-02-28T03:45:28;0.20;99.90
31695;DHT22;18289;51.330;4.946;2023-02-28T03:48:02;0.30;99.90
31695;DHT22;18289;51.330;4.946;2023-02-28T03:53:13;0.40;99.90
31695;DHT22;18289;51.330;4.946;2023-02-28T03:55:57;0.50;99.90
31695;DHT22;18289;51.330;4.946;2023-02-28T04:01:01;0.50;99.90
31695;DHT22;18289;51.330;4.946;2023-02-28T04:03:37;0.70;99.90
31695;DHT22;18289;51.330;4.946;2023-02-28T04:06:04;0.60;99.90
31695;DHT22;18289;51.330;4.946;2023-02-28T04:08:30;0.70;99.90
31695;DHT22;18289;51.330;4.946;2023-02-28T04:11:02;0.70;99.90
31695;DHT22;18289;51.330;4.946;2023-02-28T04:13:29;0.80;99.90
31695;DHT22;18289;51.330;4.946;2023-02-28T04:15:55;0.80;99.90
31695;DHT22;18289;51.330;4.946;2023-02-28T04:18:21;0.90;99.90
31695;DHT22;18289;51.330;4.946;2023-02-28T04:20:46;1.00;99.90
31695;DHT22;18289;51.330;4.946;2023-02-28T04:23:12;1.20;99.90
31695;DHT22;18289;51.330;4.946;2023-02-28T04:25:38;1.10;99.90
31695;DHT22;18289;51.330;4.946;2023-02-28T04:28:05;1.10;99.90
31695;DHT22;18289;51.330;4.946;2023-02-28T04:30:31;1.20;99.90
31695;DHT22;18289;51.330;4.946;2023-02-28T04:32:58;1.20;99.90
31695;DHT22;18289;51.330;4.946;2023-02-28T04:35:24;1.20;99.90
31695;DHT22;18289;51.330;4.946;2023-02-28T04:37:49;1.20;99.90
31695;DHT22;18289;51.330;4.946;2023-02-28T04:40:15;1.40;99.90
31695;DHT22;18289;51.330;4.946;2023-02-28T04:42:41;1.30;99.90
31695;DHT22;18289;51.330;4.946;2023-02-28T04:45:07;1.40;99.90
31695;DHT22;18289;51.330;4.946;2023-02-28T04:47:36;1.40;99.90
31695;DHT22;18289;51.330;4.946;2023-02-28T04:50:02;1.40;99.90
31695;DHT22;18289;51.330;4.946;2023-02-28T04:52:29;1.40;99.90
31695;DHT22;18289;51.330;4.946;2023-02-28T04:54:55;1.50;99.90
31695;DHT22;18289;51.330;4.946;2023-02-28T04:57:20;1.60;99.90
31695;DHT22;18289;51.330;4.946;2023-02-28T04:59:46;1.60;99.90
31695;DHT22;18289;51.330;4.946;2023-02-28T05:02:12;1.50;99.90
31695;DHT22;18289;51.330;4.946;2023-02-28T05:04:37;1.60;99.90
31695;DHT22;18289;51.330;4.946;2023-02-28T05:07:03;1.70;99.90
31695;DHT22;18289;51.330;4.946;2023-02-28T05:09:29;1.60;99.90
31695;DHT22;18289;51.330;4.946;2023-02-28T05:11:55;1.70;99.90
31695;DHT22;18289;51.330;4.946;2023-02-28T05:14:21;1.70;99.90
31695;DHT22;18289;51.330;4.946;2023-02-28T05:16:47;1.70;99.90
31695;DHT22;18289;51.330;4.946;2023-02-28T05:19:12;1.90;99.90
31695;DHT22;18289;51.330;4.946;2023-02-28T05:21:49;1.80;99.90
31695;DHT22;18289;51.330;4.946;2023-02-28T05:24:16;1.60;99.90
31695;DHT22;18289;51.330;4.946;2023-02-28T05:26:49;1.80;99.90
31695;DHT22;18289;51.330;4.946;2023-02-28T05:29:15;1.70;99.90
31695;DHT22;18289;51.330;4.946;2023-02-28T05:31:41;1.70;99.90
31695;DHT22;18289;51.330;4.946;2023-02-28T05:34:06;1.70;99.90
31695;DHT22;18289;51.330;4.946;2023-02-28T05:36:33;1.80;99.90
31695;DHT22;18289;51.330;4.946;2023-02-28T05:38:58;1.80;99.90
31695;DHT22;18289;51.330;4.946;2023-02-28T05:41:24;1.80;99.90
31695;DHT22;18289;51.330;4.946;2023-02-28T05:43:51;1.80;99.90
31695;DHT22;18289;51.330;4.946;2023-02-28T05:46:17;2.00;99.90
31695;DHT22;18289;51.330;4.946;2023-02-28T05:48:46;2.00;99.90
31695;DHT22;18289;51.330;4.946;2023-02-28T05:51:12;2.00;99.90
31695;DHT22;18289;51.330;4.946;2023-02-28T05:53:37;2.00;99.90
31695;DHT22;18289;51.330;4.946;2023-02-28T05:56:04;2.00;99.90
31695;DHT22;18289;51.330;4.946;2023-02-28T05:58:29;1.80;99.90
31695;DHT22;18289;51.330;4.946;2023-02-28T06:00:57;1.90;99.90
31695;DHT22;18289;51.330;4.946;2023-02-28T06:03:23;1.90;99.90
31695;DHT22;18289;51.330;4.946;2023-02-28T06:05:49;1.90;99.90
31695;DHT22;18289;51.330;4.946;2023-02-28T06:08:16;1.90;99.90
31695;DHT22;18289;51.330;4.946;2023-02-28T06:10:41;1.90;99.90
31695;DHT22;18289;51.330;4.946;2023-02-28T06:13:07;1.80;99.90
31695;DHT22;18289;51.330;4.946;2023-02-28T06:15:33;1.80;99.90
31695;DHT22;18289;51.330;4.946;2023-02-28T06:17:59;1.90;99.90
31695;DHT22;18289;51.330;4.946;2023-02-28T06:20:26;2.00;99.90
31695;DHT22;18289;51.330;4.946;2023-02-28T06:22:56;1.80;99.90
31695;DHT22;18289;51.330;4.946;2023-02-28T06:25:24;1.80;99.90
31695;DHT22;18289;51.330;4.946;2023-02-28T06:27:50;1.80;99.90
31695;DHT22;18289;51.330;4.946;2023-02-28T06:30:16;1.80;99.90
31695;DHT22;18289;51.330;4.946;2023-02-28T06:32:42;1.80;99.90
31695;DHT22;18289;51.330;4.946;2023-02-28T06:35:08;1.80;99.90
31695;DHT22;18289;51.330;4.946;2023-02-28T06:37:33;1.70;99.90
31695;DHT22;18289;51.330;4.946;2023-02-28T06:39:59;1.80;99.90
31695;DHT22;18289;51.330;4.946;2023-02-28T06:42:25;1.80;99.90
31695;DHT22;18289;51.330;4.946;2023-02-28T06:44:55;1.90;99.90
31695;DHT22;18289;51.330;4.946;2023-02-28T06:47:21;1.80;99.90
31695;DHT22;18289;51.330;4.946;2023-02-28T06:49:47;1.90;99.90
31695;DHT22;18289;51.330;4.946;2023-02-28T06:52:13;2.00;99.90
31695;DHT22;18289;51.330;4.946;2023-02-28T06:54:39;1.90;99.90
31695;DHT22;18289;51.330;4.946;2023-02-28T06:57:05;2.00;99.90
31695;DHT22;18289;51.330;4.946;2023-02-28T06:59:30;2.10;99.90
31695;DHT22;18289;51.330;4.946;2023-02-28T07:01:56;2.10;99.90
31695;DHT22;18289;51.330;4.946;2023-02-28T07:04:22;2.20;99.90
31695;DHT22;18289;51.330;4.946;2023-02-28T07:06:48;2.30;99.90
31695;DHT22;18289;51.330;4.946;2023-02-28T07:09:13;2.20;99.90
31695;DHT22;18289;51.330;4.946;2023-02-28T07:11:40;2.30;99.90
31695;DHT22;18289;51.330;4.946;2023-02-28T07:14:07;2.40;99.90
31695;DHT22;18289;51.330;4.946;2023-02-28T07:16:33;2.50;99.90
31695;DHT22;18289;51.330;4.946;2023-02-28T07:18:58;2.50;99.90
31695;DHT22;18289;51.330;4.946;2023-02-28T07:21:24;2.50;99.90
31695;DHT22;18289;51.330;4.946;2023-02-28T07:23:50;2.50;99.90
31695;DHT22;18289;51.330;4.946;2023-02-28T07:26:18;2.80;99.90
31695;DHT22;18289;51.330;4.946;2023-02-28T07:28:45;2.60;99.90
31695;DHT22;18289;51.330;4.946;2023-02-28T07:31:12;2.70;99.90
31695;DHT22;18289;51.330;4.946;2023-02-28T07:33:39;2.60;99.90
31695;DHT22;18289;51.330;4.946;2023-02-28T07:36:14;2.60;99.90
31695;DHT22;18289;51.330;4.946;2023-02-28T07:38:45;2.60;99.90
31695;DHT22;18289;51.330;4.946;2023-02-28T07:41:14;2.70;99.90
31695;DHT22;18289;51.330;4.946;2023-02-28T07:43:40;2.90;99.90
31695;DHT22;18289;51.330;4.946;2023-02-28T07:46:08;3.00;99.90
31695;DHT22;18289;51.330;4.946;2023-02-28T07:48:34;3.10;99.90
31695;DHT22;18289;51.330;4.946;2023-02-28T07:51:00;3.30;99.90
31695;DHT22;18289;51.330;4.946;2023-02-28T07:53:27;3.60;99.90
31695;DHT22;18289;51.330;4.946;2023-02-28T07:55:57;3.60;99.90
31695;DHT22;18289;51.330;4.946;2023-02-28T07:58:23;3.70;99.90
31695;DHT22;18289;51.330;4.946;2023-02-28T08:00:49;4.10;99.90
31695;DHT22;18289;51.330;4.946;2023-02-28T08:03:16;4.30;99.90
31695;DHT22;18289;51.330;4.946;2023-02-28T08:05:42;4.60;99.90
31695;DHT22;18289;51.330;4.946;2023-02-28T08:08:08;4.60;99.90
31695;DHT22;18289;51.330;4.946;2023-02-28T08:10:33;4.70;99.90
31695;DHT22;18289;51.330;4.946;2023-02-28T08:12:59;4.60;99.90
31695;DHT22;18289;51.330;4.946;2023-02-28T08:15:25;4.50;99.90
31695;DHT22;18289;51.330;4.946;2023-02-28T08:17:52;4.70;99.90
31695;DHT22;18289;51.330;4.946;2023-02-28T08:20:18;5.00;99.90
31695;DHT22;18289;51.330;4.946;2023-02-28T08:22:44;5.30;99.90
31695;DHT22;18289;51.330;4.946;2023-02-28T08:25:10;5.40;99.90
31695;DHT22;18289;51.330;4.946;2023-02-28T08:27:36;5.40;99.90
31695;DHT22;18289;51.330;4.946;2023-02-28T08:30:03;5.50;99.90
31695;DHT22;18289;51.330;4.946;2023-02-28T08:32:28;5.70;99.90
31695;DHT22;18289;51.330;4.946;2023-02-28T08:34:54;5.70;99.90
31695;DHT22;18289;51.330;4.946;2023-02-28T08:37:20;5.70;99.90
31695;DHT22;18289;51.330;4.946;2023-02-28T08:39:45;6.00;99.90
31695;DHT22;18289;51.330;4.946;2023-02-28T08:42:11;6.10;99.90
31695;DHT22;18289;51.330;4.946;2023-02-28T08:44:37;5.90;99.90
31695;DHT22;18289;51.330;4.946;2023-02-28T08:47:03;5.90;99.90
31695;DHT22;18289;51.330;4.946;2023-02-28T08:49:28;6.00;99.90
31695;DHT22;18289;51.330;4.946;2023-02-28T08:51:54;5.80;99.90
31695;DHT22;18289;51.330;4.946;2023-02-28T08:54:23;6.10;99.90
31695;DHT22;18289;51.330;4.946;2023-02-28T08:56:49;6.50;99.90
31695;DHT22;18289;51.330;4.946;2023-02-28T08:59:14;6.80;99.90
31695;DHT22;18289;51.330;4.946;2023-02-28T09:01:40;7.30;99.90
31695;DHT22;18289;51.330;4.946;2023-02-28T09:04:09;7.80;99.90
31695;DHT22;18289;51.330;4.946;2023-02-28T09:06:36;7.80;99.90
31695;DHT22;18289;51.330;4.946;2023-02-28T09:09:01;8.00;99.90
31695;DHT22;18289;51.330;4.946;2023-02-28T09:11:29;8.40;99.90
31695;DHT22;18289;51.330;4.946;2023-02-28T09:13:55;8.70;99.90
31695;DHT22;18289;51.330;4.946;2023-02-28T09:16:21;9.00;99.90
31695;DHT22;18289;51.330;4.946;2023-02-28T09:18:47;9.20;99.90
31695;DHT22;18289;51.330;4.946;2023-02-28T09:21:17;9.20;97.80
31695;DHT22;18289;51.330;4.946;2023-02-28T09:23:45;9.30;97.30
31695;DHT22;18289;51.330;4.946;2023-02-28T09:26:17;8.70;95.80
31695;DHT22;18289;51.330;4.946;2023-02-28T09:28:43;8.60;96.20
31695;DHT22;18289;51.330;4.946;2023-02-28T09:31:17;8.40;95.80
31695;DHT22;18289;51.330;4.946;2023-02-28T09:33:47;8.60;94.20
31695;DHT22;18289;51.330;4.946;2023-02-28T09:36:13;8.00;93.50
31695;DHT22;18289;51.330;4.946;2023-02-28T09:38:38;7.70;93.50
31695;DHT22;18289;51.330;4.946;2023-02-28T09:41:15;7.90;93.70
31695;DHT22;18289;51.330;4.946;2023-02-28T09:43:44;7.30;93.40
31695;DHT22;18289;51.330;4.946;2023-02-28T09:46:42;7.20;93.80
31695;DHT22;18289;51.330;4.946;2023-02-28T09:49:16;7.40;93.80
31695;DHT22;18289;51.330;4.946;2023-02-28T09:52:02;7.80;94.80
31695;DHT22;18289;51.330;4.946;2023-02-28T09:54:31;8.50;96.50
31695;DHT22;18289;51.330;4.946;2023-02-28T10:02:24;8.90;93.30
31695;DHT22;18289;51.330;4.946;2023-02-28T10:10:43;8.80;90.90
31695;DHT22;18289;51.330;4.946;2023-02-28T10:16:13;7.80;92.00
31695;DHT22;18289;51.330;4.946;2023-02-28T10:21:34;8.40;92.80
31695;DHT22;18289;51.330;4.946;2023-02-28T10:24:27;8.40;92.90
31695;DHT22;18289;51.330;4.946;2023-02-28T10:26:59;8.00;90.80
31695;DHT22;18289;51.330;4.946;2023-02-28T10:29:26;8.00;91.00
31695;DHT22;18289;51.330;4.946;2023-02-28T10:31:52;7.70;90.30
31695;DHT22;18289;51.330;4.946;2023-02-28T10:34:18;7.90;92.00
31695;DHT22;18289;51.330;4.946;2023-02-28T10:36:44;8.20;90.90
31695;DHT22;18289;51.330;4.946;2023-02-28T10:39:44;8.30;89.00
31695;DHT22;18289;51.330;4.946;2023-02-28T10:42:27;8.70;91.90
31695;DHT22;18289;51.330;4.946;2023-02-28T10:45:22;9.50;90.60
31695;DHT22;18289;51.330;4.946;2023-02-28T10:47:56;10.50;92.10
31695;DHT22;18289;51.330;4.946;2023-02-28T10:58:52;12.30;85.00
31695;DHT22;18289;51.330;4.946;2023-02-28T11:01:35;12.60;85.80
31695;DHT22;18289;51.330;4.946;2023-02-28T11:04:02;13.10;82.40
31695;DHT22;18289;51.330;4.946;2023-02-28T11:06:33;13.60;81.30
31695;DHT22;18289;51.330;4.946;2023-02-28T11:09:23;13.80;75.10
31695;DHT22;18289;51.330;4.946;2023-02-28T11:11:50;13.90;77.50
31695;DHT22;18289;51.330;4.946;2023-02-28T11:14:23;14.70;77.50
31695;DHT22;18289;51.330;4.946;2023-02-28T11:16:50;15.70;75.60
31695;DHT22;18289;51.330;4.946;2023-02-28T11:19:38;16.50;76.40
31695;DHT22;18289;51.330;4.946;2023-02-28T11:22:05;16.70;70.60
31695;DHT22;18289;51.330;4.946;2023-02-28T11:24:35;16.40;70.00
31695;DHT22;18289;51.330;4.946;2023-02-28T11:27:02;15.90;70.40
31695;DHT22;18289;51.330;4.946;2023-02-28T11:29:30;16.90;74.10
31695;DHT22;18289;51.330;4.946;2023-02-28T11:34:30;18.10;67.10
31695;DHT22;18289;51.330;4.946;2023-02-28T11:36:59;17.90;68.90
31695;DHT22;18289;51.330;4.946;2023-02-28T11:39:26;18.00;65.50
31695;DHT22;18289;51.330;4.946;2023-02-28T11:45:03;18.50;63.20
31695;DHT22;18289;51.330;4.946;2023-02-28T11:52:40;18.40;60.90
31695;DHT22;18289;51.330;4.946;2023-02-28T11:57:52;18.40;58.80
31695;DHT22;18289;51.330;4.946;2023-02-28T12:03:15;16.60;61.40
31695;DHT22;18289;51.330;4.946;2023-02-28T12:05:46;16.60;58.60
31695;DHT22;18289;51.330;4.946;2023-02-28T12:16:57;16.60;59.00
31695;DHT22;18289;51.330;4.946;2023-02-28T12:22:29;17.10;57.10
31695;DHT22;18289;51.330;4.946;2023-02-28T12:27:59;17.90;63.50
31695;DHT22;18289;51.330;4.946;2023-02-28T12:30:31;17.50;59.90
31695;DHT22;18289;51.330;4.946;2023-02-28T12:33:03;16.80;56.80
31695;DHT22;18289;51.330;4.946;2023-02-28T12:35:55;15.90;58.90
31695;DHT22;18289;51.330;4.946;2023-02-28T12:38:41;17.10;64.10
31695;DHT22;18289;51.330;4.946;2023-02-28T12:43:58;17.70;54.90
31695;DHT22;18289;51.330;4.946;2023-02-28T12:46:32;17.20;56.10
31695;DHT22;18289;51.330;4.946;2023-02-28T12:49:05;17.20;58.90
31695;DHT22;18289;51.330;4.946;2023-02-28T12:51:32;17.60;60.60
31695;DHT22;18289;51.330;4.946;2023-02-28T12:56:54;17.70;63.40
31695;DHT22;18289;51.330;4.946;2023-02-28T12:59:39;18.00;60.40
31695;DHT22;18289;51.330;4.946;2023-02-28T13:02:42;17.90;58.60
31695;DHT22;18289;51.330;4.946;2023-02-28T13:10:51;18.30;55.90
31695;DHT22;18289;51.330;4.946;2023-02-28T13:13:27;17.70;56.00
31695;DHT22;18289;51.330;4.946;2023-02-28T13:21:04;17.00;56.20
31695;DHT22;18289;51.330;4.946;2023-02-28T13:24:01;17.00;58.60
31695;DHT22;18289;51.330;4.946;2023-02-28T13:34:41;17.20;56.00
31695;DHT22;18289;51.330;4.946;2023-02-28T13:37:37;16.80;57.00
31695;DHT22;18289;51.330;4.946;2023-02-28T13:42:36;16.40;62.40
31695;DHT22;18289;51.330;4.946;2023-02-28T13:47:39;17.50;56.60
31695;DHT22;18289;51.330;4.946;2023-02-28T14:06:57;15.80;58.60
31695;DHT22;18289;51.330;4.946;2023-02-28T14:09:32;15.60;60.40
31695;DHT22;18289;51.330;4.946;2023-02-28T14:13:11;15.80;61.10
31695;DHT22;18289;51.330;4.946;2023-02-28T14:15:25;15.90;58.40
31695;DHT22;18289;51.330;4.946;2023-02-28T14:17:54;15.80;58.20
31695;DHT22;18289;51.330;4.946;2023-02-28T14:20:22;15.30;59.70
31695;DHT22;18289;51.330;4.946;2023-02-28T14:25:40;14.80;59.00
31695;DHT22;18289;51.330;4.946;2023-02-28T14:33:42;15.10;57.50
31695;DHT22;18289;51.330;4.946;2023-02-28T14:36:16;13.80;60.40
31695;DHT22;18289;51.330;4.946;2023-02-28T14:38:56;14.10;61.20
31695;DHT22;18289;51.330;4.946;2023-02-28T14:41:38;14.10;61.00
31695;DHT22;18289;51.330;4.946;2023-02-28T14:44:23;13.90;59.30
31695;DHT22;18289;51.330;4.946;2023-02-28T14:46:57;13.90;62.90
31695;DHT22;18289;51.330;4.946;2023-02-28T14:49:36;14.30;61.90
31695;DHT22;18289;51.330;4.946;2023-02-28T14:52:19;13.80;61.40
31695;DHT22;18289;51.330;4.946;2023-02-28T14:54:46;13.70;65.40
31695;DHT22;18289;51.330;4.946;2023-02-28T14:57:31;13.70;62.80
31695;DHT22;18289;51.330;4.946;2023-02-28T15:02:26;14.10;60.20
31695;DHT22;18289;51.330;4.946;2023-02-28T15:05:00;13.80;61.60
31695;DHT22;18289;51.330;4.946;2023-02-28T15:07:27;14.00;63.20
31695;DHT22;18289;51.330;4.946;2023-02-28T15:10:09;13.80;59.30
31695;DHT22;18289;51.330;4.946;2023-02-28T15:12:37;13.10;61.50
31695;DHT22;18289;51.330;4.946;2023-02-28T15:15:06;13.40;63.40
31695;DHT22;18289;51.330;4.946;2023-02-28T15:17:39;14.10;62.40
31695;DHT22;18289;51.330;4.946;2023-02-28T15:20:10;14.40;61.40
31695;DHT22;18289;51.330;4.946;2023-02-28T15:22:37;14.70;62.40
31695;DHT22;18289;51.330;4.946;2023-02-28T15:25:04;15.00;59.60
31695;DHT22;18289;51.330;4.946;2023-02-28T15:27:33;15.00;59.90
31695;DHT22;18289;51.330;4.946;2023-02-28T15:30:06;15.00;59.40
31695;DHT22;18289;51.330;4.946;2023-02-28T15:32:35;14.80;58.60
31695;DHT22;18289;51.330;4.946;2023-02-28T15:38:02;13.20;60.40
31695;DHT22;18289;51.330;4.946;2023-02-28T15:40:31;13.60;65.10
31695;DHT22;18289;51.330;4.946;2023-02-28T15:45:37;12.60;63.10
31695;DHT22;18289;51.330;4.946;2023-02-28T15:50:42;12.70;63.60
31695;DHT22;18289;51.330;4.946;2023-02-28T15:53:17;12.70;63.60
31695;DHT22;18289;51.330;4.946;2023-02-28T15:55:44;12.20;63.70
31695;DHT22;18289;51.330;4.946;2023-02-28T15:58:12;11.60;66.80
31695;DHT22;18289;51.330;4.946;2023-02-28T16:00:38;11.50;65.60
31695;DHT22;18289;51.330;4.946;2023-02-28T16:03:27;11.70;67.20
31695;DHT22;18289;51.330;4.946;2023-02-28T16:08:47;11.20;70.90
31695;DHT22;18289;51.330;4.946;2023-02-28T16:11:14;11.20;69.90
31695;DHT22;18289;51.330;4.946;2023-02-28T16:13:40;10.60;69.60
31695;DHT22;18289;51.330;4.946;2023-02-28T16:16:06;10.60;74.40
31695;DHT22;18289;51.330;4.946;2023-02-28T16:18:32;10.20;70.30
31695;DHT22;18289;51.330;4.946;2023-02-28T16:20:57;9.30;68.90
31695;DHT22;18289;51.330;4.946;2023-02-28T16:23:23;8.90;71.30
31695;DHT22;18289;51.330;4.946;2023-02-28T16:25:49;8.40;72.30
31695;DHT22;18289;51.330;4.946;2023-02-28T16:28:24;7.90;77.20
31695;DHT22;18289;51.330;4.946;2023-02-28T16:30:53;7.70;76.60
31695;DHT22;18289;51.330;4.946;2023-02-28T16:33:19;7.60;79.00
31695;DHT22;18289;51.330;4.946;2023-02-28T16:35:45;7.40;79.90
31695;DHT22;18289;51.330;4.946;2023-02-28T16:38:10;7.30;81.60
31695;DHT22;18289;51.330;4.946;2023-02-28T16:40:36;7.10;80.90
31695;DHT22;18289;51.330;4.946;2023-02-28T16:43:07;6.80;80.60
31695;DHT22;18289;51.330;4.946;2023-02-28T16:45:35;6.60;83.10
31695;DHT22;18289;51.330;4.946;2023-02-28T16:48:01;6.50;80.90
31695;DHT22;18289;51.330;4.946;2023-02-28T16:50:28;6.40;85.30
31695;DHT22;18289;51.330;4.946;2023-02-28T16:52:54;6.20;82.80
31695;DHT22;18289;51.330;4.946;2023-02-28T16:55:22;6.20;86.20
31695;DHT22;18289;51.330;4.946;2023-02-28T16:57:53;6.10;84.60
31695;DHT22;18289;51.330;4.946;2023-02-28T17:00:19;6.00;86.00
31695;DHT22;18289;51.330;4.946;2023-02-28T17:02:45;5.90;86.60
31695;DHT22;18289;51.330;4.946;2023-02-28T17:05:12;5.80;84.70
31695;DHT22;18289;51.330;4.946;2023-02-28T17:07:39;5.60;85.40
31695;DHT22;18289;51.330;4.946;2023-02-28T17:12:47;5.40;86.60
31695;DHT22;18289;51.330;4.946;2023-02-28T17:15:31;5.30;87.40
31695;DHT22;18289;51.330;4.946;2023-02-28T17:17:57;5.30;90.80
31695;DHT22;18289;51.330;4.946;2023-02-28T17:20:55;5.40;91.00
31695;DHT22;18289;51.330;4.946;2023-02-28T17:23:20;5.30;90.80
31695;DHT22;18289;51.330;4.946;2023-02-28T17:25:47;5.30;91.20
31695;DHT22;18289;51.330;4.946;2023-02-28T17:28:23;5.20;90.80
31695;DHT22;18289;51.330;4.946;2023-02-28T17:30:49;5.20;90.20
31695;DHT22;18289;51.330;4.946;2023-02-28T17:33:15;5.10;89.40
31695;DHT22;18289;51.330;4.946;2023-02-28T17:35:47;4.90;89.60
31695;DHT22;18289;51.330;4.946;2023-02-28T17:38:16;4.90;89.40
31695;DHT22;18289;51.330;4.946;2023-02-28T17:41:11;4.70;90.10
31695;DHT22;18289;51.330;4.946;2023-02-28T17:43:37;4.60;89.90
31695;DHT22;18289;51.330;4.946;2023-02-28T17:46:02;4.50;90.20
31695;DHT22;18289;51.330;4.946;2023-02-28T17:48:31;4.40;91.50
31695;DHT22;18289;51.330;4.946;2023-02-28T17:50:57;4.40;91.30
31695;DHT22;18289;51.330;4.946;2023-02-28T17:53:22;4.40;91.90
31695;DHT22;18289;51.330;4.946;2023-02-28T17:55:49;4.40;92.30
31695;DHT22;18289;51.330;4.946;2023-02-28T17:58:15;4.30;91.90
31695;DHT22;18289;51.330;4.946;2023-02-28T18:00:40;4.30;92.20
31695;DHT22;18289;51.330;4.946;2023-02-28T18:03:06;4.30;92.80
31695;DHT22;18289;51.330;4.946;2023-02-28T18:05:33;4.30;93.20
31695;DHT22;18289;51.330;4.946;2023-02-28T18:07:59;4.20;93.40
31695;DHT22;18289;51.330;4.946;2023-02-28T18:10:25;4.20;93.10
31695;DHT22;18289;51.330;4.946;2023-02-28T18:12:53;4.00;93.10
31695;DHT22;18289;51.330;4.946;2023-02-28T18:15:21;4.00;94.30
31695;DHT22;18289;51.330;4.946;2023-02-28T18:17:48;3.90;93.90
31695;DHT22;18289;51.330;4.946;2023-02-28T18:20:14;3.90;94.20
31695;DHT22;18289;51.330;4.946;2023-02-28T18:22:41;3.90;94.30
31695;DHT22;18289;51.330;4.946;2023-02-28T18:25:08;3.90;95.00
31695;DHT22;18289;51.330;4.946;2023-02-28T18:27:36;3.90;95.10
31695;DHT22;18289;51.330;4.946;2023-02-28T18:30:02;3.70;95.30
31695;DHT22;18289;51.330;4.946;2023-02-28T18:32:29;3.80;95.60
31695;DHT22;18289;51.330;4.946;2023-02-28T18:34:56;3.70;94.90
31695;DHT22;18289;51.330;4.946;2023-02-28T18:37:21;3.60;94.90
31695;DHT22;18289;51.330;4.946;2023-02-28T18:39:47;3.60;95.20
31695;DHT22;18289;51.330;4.946;2023-02-28T18:42:13;3.60;95.60